Contship Joy — 9HA4180 — position and weather

sailwx.info

Track history (hours):
 
Tides and Currents Weather Stations Pressure Air Temp Water Temp Dewpoint Dewpoint Depression Visibility Wind Speed Wind Dir Waves Ship Positions

Contship Joy

Last reported at 2018-Feb-22 21:09 UTC. Time now 2018-Feb-23 01:04 UTC.
Position N 38°26' E 024°36'.

Length 140 m; draft 7.7 m.

Type: Ship (hazmat cat A). MMSI: 249272000.

Date/timePositionNaut miles runAvg speedWind from/ knotsBaromVisibWave heightAir tempDewpointWater temp
2018-Feb-22 21:09N 38°26' E 024°36'610.5
2018-Feb-22 20:34N 38°20' E 024°38'33 9.7
2018-Feb-22 17:11N 37°49' E 024°27'711.1
2018-Feb-22 16:32N 37°44' E 024°19'010.5
2018-Feb-22 16:30N 37°44' E 024°19'1011.3
2018-Feb-22 15:35N 37°37' E 024°09'510.7
2018-Feb-22 15:05N 37°35' E 024°03'110.7
2018-Feb-22 15:00N 37°35' E 024°02'510.7
2018-Feb-22 14:30N 37°36' E 023°55'511.1
2018-Feb-22 14:00N 37°37' E 023°48'510.9
2018-Feb-22 13:30N 37°40' E 023°43'611.1
2018-Feb-22 13:00N 37°45' E 023°40'611.0
2018-Feb-22 12:30N 37°50' E 023°37'510.9
2018-Feb-22 12:00N 37°55' E 023°37'2 4.3
2018-Feb-22 11:29N 37°57' E 023°36'0 0.0
2018-Feb-22 11:01N 37°57' E 023°36'0 0.0
2018-Feb-22 10:31N 37°57' E 023°36'0 0.0
2018-Feb-22 10:01N 37°57' E 023°36'0 0.0
2018-Feb-22 09:31N 37°57' E 023°36'0 0.0
2018-Feb-22 09:01N 37°57' E 023°36'0 0.0
2018-Feb-22 08:30N 37°57' E 023°36'0 0.0
2018-Feb-22 08:01N 37°57' E 023°36'0 0.0
2018-Feb-22 07:31N 37°57' E 023°36'0 0.0
2018-Feb-22 07:01N 37°57' E 023°36'0 0.0
2018-Feb-22 06:31N 37°57' E 023°36'0 0.0
2018-Feb-22 06:01N 37°57' E 023°36'0 0.0
2018-Feb-22 05:31N 37°57' E 023°36'0 0.0
2018-Feb-22 05:00N 37°57' E 023°36'0 0.0
2018-Feb-22 04:31N 37°57' E 023°36'0 0.0
2018-Feb-22 04:01N 37°57' E 023°36'0 0.0
2018-Feb-22 03:31N 37°57' E 023°36'0 0.0
2018-Feb-22 03:00N 37°57' E 023°36'0 0.0
2018-Feb-22 02:31N 37°57' E 023°36'0 0.0
2018-Feb-22 02:01N 37°57' E 023°36'0 0.0
2018-Feb-22 01:31N 37°57' E 023°36'0 0.0
2018-Feb-22 01:01N 37°57' E 023°36'0 0.0
2018-Feb-22 00:31N 37°57' E 023°36'0 0.0
2018-Feb-22 00:01N 37°57' E 023°36'0 0.0
2018-Feb-21 23:30N 37°57' E 023°36'0 0.0
2018-Feb-21 23:01N 37°57' E 023°36'0 0.0
2018-Feb-21 22:30N 37°57' E 023°36'0 0.0
2018-Feb-21 22:01N 37°57' E 023°36'1 2.1
2018-Feb-21 21:31N 37°56' E 023°36'2 4.3
2018-Feb-21 21:01N 37°54' E 023°35'2 3.5
2018-Feb-21 20:31N 37°53' E 023°33'0 0.2
2018-Feb-21 20:01N 37°53' E 023°33'0 0.0
2018-Feb-21 19:31N 37°53' E 023°33'0 0.1
2018-Feb-21 19:00N 37°53' E 023°33'1 1.7
2018-Feb-21 18:31N 37°53' E 023°34'4 8.8
2018-Feb-21 18:01N 37°51' E 023°39'713.0
2018-Feb-21 17:31N 37°45' E 023°43'713.3
2018-Feb-21 17:00N 37°39' E 023°46'714.1
2018-Feb-21 16:30N 37°32' E 023°47'1013.7
2018-Feb-21 15:48N 37°22' E 023°46'613.5
2018-Feb-21 15:22N 37°17' E 023°44'43313.1
2018-Feb-20 06:24N 35°48' E 014°56'614.3
2018-Feb-20 06:00N 35°48' E 014°49'611.2
2018-Feb-20 05:30N 35°47' E 014°42'610.5
2018-Feb-20 04:58N 35°47' E 014°35'3 0.5
2018-Feb-19 22:59N 35°49' E 014°33'0 0.0
2018-Feb-19 22:28N 35°49' E 014°33'0 0.0
2018-Feb-19 15:55N 35°49' E 014°33'0 0.0
2018-Feb-19 15:30N 35°49' E 014°33'0 0.0
2018-Feb-19 15:00N 35°49' E 014°33'0 0.0
2018-Feb-19 09:48N 35°49' E 014°33'0 0.0
2018-Feb-19 09:29N 35°49' E 014°33'0 0.0
2018-Feb-19 02:06N 35°49' E 014°33'0 0.0
2018-Feb-19 00:49N 35°49' E 014°33'0 0.0
2018-Feb-19 00:30N 35°49' E 014°33'0 0.0
2018-Feb-19 00:00N 35°49' E 014°33'0 0.0
2018-Feb-18 23:30N 35°49' E 014°33'0 0.0
2018-Feb-18 23:00N 35°49' E 014°33'0 0.1
2018-Feb-18 22:30N 35°49' E 014°32'2 3.6
2018-Feb-18 22:00N 35°48' E 014°34'3 6.5
2018-Feb-18 21:30N 35°47' E 014°38'2 4.6
2018-Feb-18 20:59N 35°49' E 014°41'3 6.2
2018-Feb-18 20:28N 35°51' E 014°43'0 0.1
2018-Feb-18 19:58N 35°51' E 014°43'0 0.0
2018-Feb-18 19:28N 35°51' E 014°43'0 0.0
2018-Feb-18 18:58N 35°51' E 014°43'0 0.0
2018-Feb-18 18:28N 35°51' E 014°43'0 0.0
2018-Feb-18 17:58N 35°51' E 014°43'0 0.0
2018-Feb-18 17:28N 35°51' E 014°43'0 0.0
2018-Feb-18 16:58N 35°51' E 014°43'0 0.0
2018-Feb-18 16:28N 35°51' E 014°43'0 0.0
2018-Feb-18 15:58N 35°51' E 014°43'0 0.0
2018-Feb-18 15:28N 35°51' E 014°43'0 0.0
2018-Feb-18 14:58N 35°51' E 014°43'0 0.0
2018-Feb-18 14:28N 35°51' E 014°43'0 0.0
2018-Feb-18 13:58N 35°51' E 014°43'0 0.1
2018-Feb-18 13:28N 35°51' E 014°43'0 0.0
2018-Feb-18 12:58N 35°51' E 014°43'0 0.1
2018-Feb-18 12:28N 35°51' E 014°43'0 0.0
2018-Feb-18 11:58N 35°51' E 014°43'0 0.1
2018-Feb-18 11:28N 35°51' E 014°43'0 0.0
2018-Feb-18 10:58N 35°51' E 014°43'0 0.0
2018-Feb-18 10:28N 35°51' E 014°43'0 0.0
2018-Feb-18 09:58N 35°51' E 014°43'0 0.0
2018-Feb-18 09:25N 35°51' E 014°43'0 0.0
2018-Feb-18 08:58N 35°51' E 014°43'0 0.1
2018-Feb-18 08:25N 35°51' E 014°43'0 0.0
2018-Feb-18 07:58N 35°51' E 014°43'0 0.0
2018-Feb-18 07:28N 35°51' E 014°43'0 0.1
2018-Feb-18 06:55N 35°51' E 014°43'0 0.1
2018-Feb-18 06:28N 35°51' E 014°43'0 0.1
2018-Feb-18 05:58N 35°51' E 014°43'0 0.0
2018-Feb-18 05:25N 35°51' E 014°43'0 0.0
2018-Feb-18 04:49N 35°51' E 014°43'0 0.0
2018-Feb-18 04:28N 35°51' E 014°43'0 0.0
2018-Feb-18 03:55N 35°51' E 014°43'0 0.0
2018-Feb-18 03:28N 35°51' E 014°43'0 0.0
2018-Feb-18 02:55N 35°51' E 014°43'0 0.0
2018-Feb-18 02:25N 35°51' E 014°43'0 0.0
2018-Feb-18 01:34N 35°51' E 014°43'0 0.1
2018-Feb-18 01:28N 35°51' E 014°43'0 0.0
2018-Feb-18 00:58N 35°51' E 014°43'0 0.1
2018-Feb-18 00:22N 35°51' E 014°43'0 0.0
2018-Feb-17 23:49N 35°51' E 014°43'0 0.1
2018-Feb-17 23:28N 35°51' E 014°43'0 0.0
2018-Feb-17 22:58N 35°51' E 014°43'0 0.0
2018-Feb-17 21:01N 35°51' E 014°43'0 0.0
2018-Feb-17 20:43N 35°51' E 014°43'0 0.0
2018-Feb-17 20:04N 35°51' E 014°43'0 0.0
2018-Feb-17 19:46N 35°51' E 014°43'0 0.0
2018-Feb-17 19:25N 35°51' E 014°43'0 0.0
2018-Feb-17 18:55N 35°51' E 014°43'0 0.0
2018-Feb-17 18:28N 35°51' E 014°43'0 0.0
2018-Feb-17 17:58N 35°51' E 014°43'0 0.0
2018-Feb-17 17:22N 35°51' E 014°43'0 0.0
2018-Feb-17 16:07N 35°51' E 014°43'0 0.1
2018-Feb-17 15:58N 35°51' E 014°43'0 0.0
2018-Feb-17 15:28N 35°51' E 014°43'0 0.0
2018-Feb-17 14:52N 35°51' E 014°43'0 0.0
2018-Feb-17 14:07N 35°51' E 014°43'0 0.1
2018-Feb-17 13:52N 35°51' E 014°43'0 0.0
2018-Feb-17 13:22N 35°51' E 014°43'0 0.1
2018-Feb-17 12:55N 35°51' E 014°43'0 0.0
2018-Feb-17 12:25N 35°51' E 014°43'0 0.0
2018-Feb-17 11:58N 35°51' E 014°43'0 0.0
2018-Feb-17 11:25N 35°51' E 014°43'0 0.0
2018-Feb-17 10:28N 35°51' E 014°43'0 0.0
2018-Feb-17 09:43N 35°51' E 014°43'0 0.0
2018-Feb-17 08:37N 35°51' E 014°43'0 0.1
2018-Feb-17 08:28N 35°51' E 014°43'0 0.1
2018-Feb-17 07:58N 35°51' E 014°43'0 0.0
2018-Feb-17 06:31N 35°51' E 014°43'0 0.1
2018-Feb-17 06:07N 35°51' E 014°43'0 0.1
2018-Feb-17 05:55N 35°51' E 014°43'0 0.0
2018-Feb-17 04:58N 35°51' E 014°43'0 0.1
2018-Feb-17 04:19N 35°51' E 014°43'0 0.0
2018-Feb-17 03:19N 35°51' E 014°43'0 0.0
2018-Feb-17 02:58N 35°51' E 014°43'0 0.1
2018-Feb-17 02:28N 35°51' E 014°43'0 0.0
2018-Feb-17 01:58N 35°51' E 014°43'0 0.0
2018-Feb-17 01:28N 35°51' E 014°43'0 0.0
2018-Feb-17 00:58N 35°51' E 014°43'0 0.0
2018-Feb-17 00:28N 35°51' E 014°43'0 0.0
2018-Feb-16 23:58N 35°51' E 014°43'0 0.0
2018-Feb-16 23:28N 35°51' E 014°43'0 0.0
2018-Feb-16 22:58N 35°51' E 014°43'0 0.0
2018-Feb-16 22:28N 35°51' E 014°43'0 0.0
2018-Feb-16 21:58N 35°51' E 014°43'0 0.0
2018-Feb-16 21:28N 35°51' E 014°43'0 0.0
2018-Feb-16 20:58N 35°51' E 014°43'0 0.0
2018-Feb-16 20:28N 35°51' E 014°43'0 0.0
2018-Feb-16 19:58N 35°51' E 014°43'0 0.0
2018-Feb-16 19:28N 35°51' E 014°43'0 0.0
2018-Feb-16 18:58N 35°51' E 014°43'0 0.0
2018-Feb-16 18:25N 35°51' E 014°43'0 0.0
2018-Feb-16 17:58N 35°51' E 014°43'0 0.0
2018-Feb-16 17:28N 35°51' E 014°43'0 0.0
2018-Feb-16 16:58N 35°51' E 014°43'0 0.0
2018-Feb-16 16:25N 35°51' E 014°43'0 0.0
2018-Feb-16 15:58N 35°51' E 014°43'0 0.0
2018-Feb-16 15:28N 35°51' E 014°43'0 0.0
2018-Feb-16 14:58N 35°51' E 014°43'0 0.0
2018-Feb-16 14:28N 35°51' E 014°43'0 0.0
2018-Feb-16 13:58N 35°51' E 014°43'0 0.0
2018-Feb-16 13:28N 35°51' E 014°43'0 0.1
2018-Feb-16 12:58N 35°51' E 014°43'0 0.0
2018-Feb-16 12:29N 35°51' E 014°43'0 0.0
2018-Feb-16 12:00N 35°51' E 014°43'0 0.0
2018-Feb-16 11:30N 35°51' E 014°43'0 0.1
2018-Feb-16 11:00N 35°51' E 014°43'0 0.1
2018-Feb-16 10:30N 35°51' E 014°43'0 0.0
2018-Feb-16 09:59N 35°51' E 014°43'0 0.0
2018-Feb-16 09:30N 35°51' E 014°43'0 0.0
2018-Feb-16 09:00N 35°51' E 014°43'0 0.1
2018-Feb-16 08:30N 35°51' E 014°43'0 0.1
2018-Feb-16 08:00N 35°51' E 014°43'0 0.0
2018-Feb-16 07:30N 35°51' E 014°43'0 0.1
2018-Feb-16 07:00N 35°51' E 014°43'0 0.0
2018-Feb-16 06:30N 35°51' E 014°43'0 0.0
2018-Feb-16 06:00N 35°51' E 014°43'0 0.0
2018-Feb-16 05:30N 35°51' E 014°43'0 0.0
2018-Feb-16 05:00N 35°51' E 014°43'0 0.0
2018-Feb-16 04:29N 35°51' E 014°43'0 0.0
2018-Feb-16 04:00N 35°51' E 014°43'0 0.0
2018-Feb-16 03:30N 35°51' E 014°43'0 0.0
2018-Feb-16 03:00N 35°51' E 014°43'0 0.0
2018-Feb-16 02:30N 35°51' E 014°43'0 0.0
2018-Feb-16 02:00N 35°51' E 014°43'0 0.0
2018-Feb-16 01:30N 35°51' E 014°43'0 0.0
2018-Feb-16 01:00N 35°51' E 014°43'0 0.0
2018-Feb-16 00:29N 35°51' E 014°43'0 0.0
2018-Feb-16 00:00N 35°51' E 014°43'0 0.0
2018-Feb-15 23:30N 35°51' E 014°43'0 0.0
2018-Feb-15 23:00N 35°51' E 014°43'0 0.0
2018-Feb-15 22:30N 35°51' E 014°43'0 0.0
2018-Feb-15 22:00N 35°51' E 014°43'0 0.0
2018-Feb-15 21:29N 35°51' E 014°43'0 0.2
2018-Feb-15 21:00N 35°51' E 014°43'2 4.2
2018-Feb-15 20:28N 35°50' E 014°46'4 8.7
2018-Feb-15 20:00N 35°50' E 014°51'  
Track history (hours):
 
Tides and Currents Weather Stations Pressure Air Temp Water Temp Dewpoint Dewpoint Depression Visibility Wind Speed Wind Dir Waves Ship Positions

Contship Joy

Last reported at 2018-Feb-22 21:09 UTC. Time now 2018-Feb-23 01:04 UTC.
Position N 38°26' E 024°36'.

Length 140 m; draft 7.7 m.

Type: Ship (hazmat cat A). MMSI: 249272000.

Date/timePositionNaut miles runAvg speedWind from/ knotsBaromVisibWave heightAir tempDewpointWater temp
2018-Feb-22 21:09N 38°26' E 024°36'610.5
2018-Feb-22 20:34N 38°20' E 024°38'33 9.7
2018-Feb-22 17:11N 37°49' E 024°27'711.1
2018-Feb-22 16:32N 37°44' E 024°19'010.5
2018-Feb-22 16:30N 37°44' E 024°19'1011.3
2018-Feb-22 15:35N 37°37' E 024°09'510.7
2018-Feb-22 15:05N 37°35' E 024°03'110.7
2018-Feb-22 15:00N 37°35' E 024°02'510.7
2018-Feb-22 14:30N 37°36' E 023°55'511.1
2018-Feb-22 14:00N 37°37' E 023°48'510.9
2018-Feb-22 13:30N 37°40' E 023°43'611.1
2018-Feb-22 13:00N 37°45' E 023°40'611.0
2018-Feb-22 12:30N 37°50' E 023°37'510.9
2018-Feb-22 12:00N 37°55' E 023°37'2 4.3
2018-Feb-22 11:29N 37°57' E 023°36'0 0.0
2018-Feb-22 11:01N 37°57' E 023°36'0 0.0
2018-Feb-22 10:31N 37°57' E 023°36'0 0.0
2018-Feb-22 10:01N 37°57' E 023°36'0 0.0
2018-Feb-22 09:31N 37°57' E 023°36'0 0.0
2018-Feb-22 09:01N 37°57' E 023°36'0 0.0
2018-Feb-22 08:30N 37°57' E 023°36'0 0.0
2018-Feb-22 08:01N 37°57' E 023°36'0 0.0
2018-Feb-22 07:31N 37°57' E 023°36'0 0.0
2018-Feb-22 07:01N 37°57' E 023°36'0 0.0
2018-Feb-22 06:31N 37°57' E 023°36'0 0.0
2018-Feb-22 06:01N 37°57' E 023°36'0 0.0
2018-Feb-22 05:31N 37°57' E 023°36'0 0.0
2018-Feb-22 05:00N 37°57' E 023°36'0 0.0
2018-Feb-22 04:31N 37°57' E 023°36'0 0.0
2018-Feb-22 04:01N 37°57' E 023°36'0 0.0
2018-Feb-22 03:31N 37°57' E 023°36'0 0.0
2018-Feb-22 03:00N 37°57' E 023°36'0 0.0
2018-Feb-22 02:31N 37°57' E 023°36'0 0.0
2018-Feb-22 02:01N 37°57' E 023°36'0 0.0
2018-Feb-22 01:31N 37°57' E 023°36'0 0.0
2018-Feb-22 01:01N 37°57' E 023°36'0 0.0
2018-Feb-22 00:31N 37°57' E 023°36'0 0.0
2018-Feb-22 00:01N 37°57' E 023°36'0 0.0
2018-Feb-21 23:30N 37°57' E 023°36'0 0.0
2018-Feb-21 23:01N 37°57' E 023°36'0 0.0
2018-Feb-21 22:30N 37°57' E 023°36'0 0.0
2018-Feb-21 22:01N 37°57' E 023°36'1 2.1
2018-Feb-21 21:31N 37°56' E 023°36'2 4.3
2018-Feb-21 21:01N 37°54' E 023°35'2 3.5
2018-Feb-21 20:31N 37°53' E 023°33'0 0.2
2018-Feb-21 20:01N 37°53' E 023°33'0 0.0
2018-Feb-21 19:31N 37°53' E 023°33'0 0.1
2018-Feb-21 19:00N 37°53' E 023°33'1 1.7
2018-Feb-21 18:31N 37°53' E 023°34'4 8.8
2018-Feb-21 18:01N 37°51' E 023°39'713.0
2018-Feb-21 17:31N 37°45' E 023°43'713.3
2018-Feb-21 17:00N 37°39' E 023°46'714.1
2018-Feb-21 16:30N 37°32' E 023°47'1013.7
2018-Feb-21 15:48N 37°22' E 023°46'613.5
2018-Feb-21 15:22N 37°17' E 023°44'43313.1
2018-Feb-20 06:24N 35°48' E 014°56'614.3
2018-Feb-20 06:00N 35°48' E 014°49'611.2
2018-Feb-20 05:30N 35°47' E 014°42'610.5
2018-Feb-20 04:58N 35°47' E 014°35'3 0.5
2018-Feb-19 22:59N 35°49' E 014°33'0 0.0
2018-Feb-19 22:28N 35°49' E 014°33'0 0.0
2018-Feb-19 15:55N 35°49' E 014°33'0 0.0
2018-Feb-19 15:30N 35°49' E 014°33'0 0.0
2018-Feb-19 15:00N 35°49' E 014°33'0 0.0
2018-Feb-19 09:48N 35°49' E 014°33'0 0.0
2018-Feb-19 09:29N 35°49' E 014°33'0 0.0
2018-Feb-19 02:06N 35°49' E 014°33'0 0.0
2018-Feb-19 00:49N 35°49' E 014°33'0 0.0
2018-Feb-19 00:30N 35°49' E 014°33'0 0.0
2018-Feb-19 00:00N 35°49' E 014°33'0 0.0
2018-Feb-18 23:30N 35°49' E 014°33'0 0.0
2018-Feb-18 23:00N 35°49' E 014°33'0 0.1
2018-Feb-18 22:30N 35°49' E 014°32'2 3.6
2018-Feb-18 22:00N 35°48' E 014°34'3 6.5
2018-Feb-18 21:30N 35°47' E 014°38'2 4.6
2018-Feb-18 20:59N 35°49' E 014°41'3 6.2
2018-Feb-18 20:28N 35°51' E 014°43'0 0.1
2018-Feb-18 19:58N 35°51' E 014°43'0 0.0
2018-Feb-18 19:28N 35°51' E 014°43'0 0.0
2018-Feb-18 18:58N 35°51' E 014°43'0 0.0
2018-Feb-18 18:28N 35°51' E 014°43'0 0.0
2018-Feb-18 17:58N 35°51' E 014°43'0 0.0
2018-Feb-18 17:28N 35°51' E 014°43'0 0.0
2018-Feb-18 16:58N 35°51' E 014°43'0 0.0
2018-Feb-18 16:28N 35°51' E 014°43'0 0.0
2018-Feb-18 15:58N 35°51' E 014°43'0 0.0
2018-Feb-18 15:28N 35°51' E 014°43'0 0.0
2018-Feb-18 14:58N 35°51' E 014°43'0 0.0
2018-Feb-18 14:28N 35°51' E 014°43'0 0.0
2018-Feb-18 13:58N 35°51' E 014°43'0 0.1
2018-Feb-18 13:28N 35°51' E 014°43'0 0.0
2018-Feb-18 12:58N 35°51' E 014°43'0 0.1
2018-Feb-18 12:28N 35°51' E 014°43'0 0.0
2018-Feb-18 11:58N 35°51' E 014°43'0 0.1
2018-Feb-18 11:28N 35°51' E 014°43'0 0.0
2018-Feb-18 10:58N 35°51' E 014°43'0 0.0
2018-Feb-18 10:28N 35°51' E 014°43'0 0.0
2018-Feb-18 09:58N 35°51' E 014°43'0 0.0
2018-Feb-18 09:25N 35°51' E 014°43'0 0.0
2018-Feb-18 08:58N 35°51' E 014°43'0 0.1
2018-Feb-18 08:25N 35°51' E 014°43'0 0.0
2018-Feb-18 07:58N 35°51' E 014°43'0 0.0
2018-Feb-18 07:28N 35°51' E 014°43'0 0.1
2018-Feb-18 06:55N 35°51' E 014°43'0 0.1
2018-Feb-18 06:28N 35°51' E 014°43'0 0.1
2018-Feb-18 05:58N 35°51' E 014°43'0 0.0
2018-Feb-18 05:25N 35°51' E 014°43'0 0.0
2018-Feb-18 04:49N 35°51' E 014°43'0 0.0
2018-Feb-18 04:28N 35°51' E 014°43'0 0.0
2018-Feb-18 03:55N 35°51' E 014°43'0 0.0
2018-Feb-18 03:28N 35°51' E 014°43'0 0.0
2018-Feb-18 02:55N 35°51' E 014°43'0 0.0
2018-Feb-18 02:25N 35°51' E 014°43'0 0.0
2018-Feb-18 01:34N 35°51' E 014°43'0 0.1
2018-Feb-18 01:28N 35°51' E 014°43'0 0.0
2018-Feb-18 00:58N 35°51' E 014°43'0 0.1
2018-Feb-18 00:22N 35°51' E 014°43'0 0.0
2018-Feb-17 23:49N 35°51' E 014°43'0 0.1
2018-Feb-17 23:28N 35°51' E 014°43'0 0.0
2018-Feb-17 22:58N 35°51' E 014°43'0 0.0
2018-Feb-17 21:01N 35°51' E 014°43'0 0.0
2018-Feb-17 20:43N 35°51' E 014°43'0 0.0
2018-Feb-17 20:04N 35°51' E 014°43'0 0.0
2018-Feb-17 19:46N 35°51' E 014°43'0 0.0
2018-Feb-17 19:25N 35°51' E 014°43'0 0.0
2018-Feb-17 18:55N 35°51' E 014°43'0 0.0
2018-Feb-17 18:28N 35°51' E 014°43'0 0.0
2018-Feb-17 17:58N 35°51' E 014°43'0 0.0
2018-Feb-17 17:22N 35°51' E 014°43'0 0.0
2018-Feb-17 16:07N 35°51' E 014°43'0 0.1
2018-Feb-17 15:58N 35°51' E 014°43'0 0.0
2018-Feb-17 15:28N 35°51' E 014°43'0 0.0
2018-Feb-17 14:52N 35°51' E 014°43'0 0.0
2018-Feb-17 14:07N 35°51' E 014°43'0 0.1
2018-Feb-17 13:52N 35°51' E 014°43'0 0.0
2018-Feb-17 13:22N 35°51' E 014°43'0 0.1
2018-Feb-17 12:55N 35°51' E 014°43'0 0.0
2018-Feb-17 12:25N 35°51' E 014°43'0 0.0
2018-Feb-17 11:58N 35°51' E 014°43'0 0.0
2018-Feb-17 11:25N 35°51' E 014°43'0 0.0
2018-Feb-17 10:28N 35°51' E 014°43'0 0.0
2018-Feb-17 09:43N 35°51' E 014°43'0 0.0
2018-Feb-17 08:37N 35°51' E 014°43'0 0.1
2018-Feb-17 08:28N 35°51' E 014°43'0 0.1
2018-Feb-17 07:58N 35°51' E 014°43'0 0.0
2018-Feb-17 06:31N 35°51' E 014°43'0 0.1
2018-Feb-17 06:07N 35°51' E 014°43'0 0.1
2018-Feb-17 05:55N 35°51' E 014°43'0 0.0
2018-Feb-17 04:58N 35°51' E 014°43'0 0.1
2018-Feb-17 04:19N 35°51' E 014°43'0 0.0
2018-Feb-17 03:19N 35°51' E 014°43'0 0.0
2018-Feb-17 02:58N 35°51' E 014°43'0 0.1
2018-Feb-17 02:28N 35°51' E 014°43'0 0.0
2018-Feb-17 01:58N 35°51' E 014°43'0 0.0
2018-Feb-17 01:28N 35°51' E 014°43'0 0.0
2018-Feb-17 00:58N 35°51' E 014°43'0 0.0
2018-Feb-17 00:28N 35°51' E 014°43'0 0.0
2018-Feb-16 23:58N 35°51' E 014°43'0 0.0
2018-Feb-16 23:28N 35°51' E 014°43'0 0.0
2018-Feb-16 22:58N 35°51' E 014°43'0 0.0
2018-Feb-16 22:28N 35°51' E 014°43'0 0.0
2018-Feb-16 21:58N 35°51' E 014°43'0 0.0
2018-Feb-16 21:28N 35°51' E 014°43'0 0.0
2018-Feb-16 20:58N 35°51' E 014°43'0 0.0
2018-Feb-16 20:28N 35°51' E 014°43'0 0.0
2018-Feb-16 19:58N 35°51' E 014°43'0 0.0
2018-Feb-16 19:28N 35°51' E 014°43'0 0.0
2018-Feb-16 18:58N 35°51' E 014°43'0 0.0
2018-Feb-16 18:25N 35°51' E 014°43'0 0.0
2018-Feb-16 17:58N 35°51' E 014°43'0 0.0
2018-Feb-16 17:28N 35°51' E 014°43'0 0.0
2018-Feb-16 16:58N 35°51' E 014°43'0 0.0
2018-Feb-16 16:25N 35°51' E 014°43'0 0.0
2018-Feb-16 15:58N 35°51' E 014°43'0 0.0
2018-Feb-16 15:28N 35°51' E 014°43'0 0.0
2018-Feb-16 14:58N 35°51' E 014°43'0 0.0
2018-Feb-16 14:28N 35°51' E 014°43'0 0.0
2018-Feb-16 13:58N 35°51' E 014°43'0 0.0
2018-Feb-16 13:28N 35°51' E 014°43'0 0.1
2018-Feb-16 12:58N 35°51' E 014°43'0 0.0
2018-Feb-16 12:29N 35°51' E 014°43'0 0.0
2018-Feb-16 12:00N 35°51' E 014°43'0 0.0
2018-Feb-16 11:30N 35°51' E 014°43'0 0.1
2018-Feb-16 11:00N 35°51' E 014°43'0 0.1
2018-Feb-16 10:30N 35°51' E 014°43'0 0.0
2018-Feb-16 09:59N 35°51' E 014°43'0 0.0
2018-Feb-16 09:30N 35°51' E 014°43'0 0.0
2018-Feb-16 09:00N 35°51' E 014°43'0 0.1
2018-Feb-16 08:30N 35°51' E 014°43'0 0.1
2018-Feb-16 08:00N 35°51' E 014°43'0 0.0
2018-Feb-16 07:30N 35°51' E 014°43'0 0.1
2018-Feb-16 07:00N 35°51' E 014°43'0 0.0
2018-Feb-16 06:30N 35°51' E 014°43'0 0.0
2018-Feb-16 06:00N 35°51' E 014°43'0 0.0
2018-Feb-16 05:30N 35°51' E 014°43'0 0.0
2018-Feb-16 05:00N 35°51' E 014°43'0 0.0
2018-Feb-16 04:29N 35°51' E 014°43'0 0.0
2018-Feb-16 04:00N 35°51' E 014°43'0 0.0
2018-Feb-16 03:30N 35°51' E 014°43'0 0.0
2018-Feb-16 03:00N 35°51' E 014°43'0 0.0
2018-Feb-16 02:30N 35°51' E 014°43'0 0.0
2018-Feb-16 02:00N 35°51' E 014°43'0 0.0
2018-Feb-16 01:30N 35°51' E 014°43'0 0.0
2018-Feb-16 01:00N 35°51' E 014°43'0 0.0
2018-Feb-16 00:29N 35°51' E 014°43'0 0.0
2018-Feb-16 00:00N 35°51' E 014°43'0 0.0
2018-Feb-15 23:30N 35°51' E 014°43'0 0.0
2018-Feb-15 23:00N 35°51' E 014°43'0 0.0
2018-Feb-15 22:30N 35°51' E 014°43'0 0.0
2018-Feb-15 22:00N 35°51' E 014°43'0 0.0
2018-Feb-15 21:29N 35°51' E 014°43'0 0.2
2018-Feb-15 21:00N 35°51' E 014°43'2 4.2
2018-Feb-15 20:28N 35°50' E 014°46'4 8.7
2018-Feb-15 20:00N 35°50' E 014°51'  

Dump ship's entire track history